Time;durP1;ratioP1;P1;durP2;ratioP2;P2;SDS_P1;SDS_P2;PMS_P1;PMS_P2;Temp;Humidity;BMP_temperature;BMP_pressure;BME280_temperature;BME280_humidity;BME280_pressure;Samples;Min_cycle;Max_cycle;Signal;HPM_P1;HPM_P2
2022/04/17 00:00:23;;;;;;;2.97;2.50;;;23.50;34.40;;;;;;5069986;28;20487;-63
2022/04/17 00:02:49;;;;;;;3.03;2.60;;;23.50;34.40;;;;;;5071015;28;20884;-63
2022/04/17 00:05:14;;;;;;;2.60;2.40;;;23.50;34.40;;;;;;5070837;28;20487;-63
2022/04/17 00:07:40;;;;;;;3.20;2.47;;;23.50;34.40;;;;;;5071180;28;20475;-63
2022/04/17 00:10:08;;;;;;;2.80;2.30;;;23.50;34.40;;;;;;5071126;28;20419;-62
2022/04/17 00:12:34;;;;;;;2.50;2.20;;;23.40;34.30;;;;;;5071155;28;20411;-62
2022/04/17 00:15:02;;;;;;;2.92;2.13;;;23.40;34.30;;;;;;5070665;28;20467;-63
2022/04/17 00:17:28;;;;;;;2.67;2.30;;;23.40;34.30;;;;;;5071170;28;20399;-63
2022/04/17 00:19:54;;;;;;;2.42;2.22;;;23.50;34.40;;;;;;5070972;28;20375;-63
2022/04/17 00:22:20;;;;;;;2.80;2.43;;;23.50;34.40;;;;;;5052558;28;20461;-63
2022/04/17 00:24:45;;;;;;;2.80;2.28;;;23.40;34.30;;;;;;5070575;28;20390;-63
2022/04/17 00:27:11;;;;;;;2.50;2.30;;;23.40;34.30;;;;;;5070166;28;20407;-64
2022/04/17 00:29:37;;;;;;;2.30;2.10;;;23.40;34.30;;;;;;5071009;28;20899;-64
2022/04/17 00:32:03;;;;;;;2.88;2.40;;;23.40;34.30;;;;;;5036143;28;20482;-66
2022/04/17 00:34:30;;;;;;;2.92;2.13;;;23.40;34.20;;;;;;5070970;28;20388;-63
2022/04/17 00:37:00;;;;;;;2.92;2.20;;;23.40;34.20;;;;;;5070468;28;20390;-63
2022/04/17 00:39:27;;;;;;;3.10;2.47;;;23.40;34.30;;;;;;5070827;28;20449;-63
2022/04/17 00:41:54;;;;;;;3.08;2.50;;;23.40;34.20;;;;;;5070846;28;20390;-63
2022/04/17 00:44:19;;;;;;;3.10;2.30;;;23.40;34.10;;;;;;5069538;28;20388;-63
2022/04/17 00:46:45;;;;;;;2.90;2.30;;;23.40;34.10;;;;;;5069143;28;20407;-63
2022/04/17 00:49:11;;;;;;;2.73;2.20;;;23.40;34.10;;;;;;5070496;28;20491;-63
2022/04/17 00:51:37;;;;;;;2.53;2.33;;;23.40;34.10;;;;;;5070488;28;20380;-64
2022/04/17 00:54:09;;;;;;;2.70;2.05;;;23.30;34.00;;;;;;5070500;28;20427;-63
2022/04/17 00:56:35;;;;;;;2.40;2.00;;;23.30;34.10;;;;;;5073840;28;20417;-64
2022/04/17 00:59:05;;;;;;;2.30;2.10;;;23.30;34.10;;;;;;5073200;28;20482;-63
2022/04/17 01:01:33;;;;;;;2.53;2.28;;;23.30;34.10;;;;;;5055761;28;20430;-63
2022/04/17 01:03:59;;;;;;;2.55;2.30;;;23.30;34.10;;;;;;5074012;28;20394;-64
2022/04/17 01:06:28;;;;;;;2.45;2.25;;;23.30;34.10;;;;;;5056126;28;20475;-63
2022/04/17 01:08:55;;;;;;;2.45;2.20;;;23.30;34.10;;;;;;5073503;28;20391;-63
2022/04/17 01:11:20;;;;;;;2.60;2.05;;;23.30;34.10;;;;;;5073915;28;20441;-63
2022/04/17 01:13:47;;;;;;;2.50;2.10;;;23.30;34.10;;;;;;5073753;28;20419;-63
2022/04/17 01:16:16;;;;;;;2.30;2.10;;;23.30;34.10;;;;;;5073858;28;20933;-63
2022/04/17 01:19:11;;;;;;;2.38;2.08;;;23.30;34.10;;;;;;5055910;28;20399;-63
2022/04/17 01:21:38;;;;;;;2.40;2.20;;;23.30;34.00;;;;;;5073829;28;20876;-65
2022/04/17 01:26:57;;;;;;;2.50;2.30;;;23.20;33.90;;;;;;5073792;28;20383;-64
2022/04/17 01:29:34;;;;;;;2.20;2.00;;;23.20;33.90;;;;;;5055646;28;20862;-63
2022/04/17 01:32:01;;;;;;;2.40;2.10;;;23.20;33.90;;;;;;5073612;28;20467;-64
2022/04/17 01:34:27;;;;;;;2.80;2.00;;;23.20;33.90;;;;;;5055591;28;20541;-63
2022/04/17 01:36:53;;;;;;;2.50;2.20;;;23.20;34.50;;;;;;5073338;28;20455;-63
2022/04/17 01:39:19;;;;;;;2.67;2.15;;;23.20;34.00;;;;;;5073209;28;20391;-63
2022/04/17 01:41:46;;;;;;;2.30;2.00;;;23.20;34.00;;;;;;5073170;28;20394;-64
2022/04/17 01:44:12;;;;;;;2.55;2.10;;;23.10;34.00;;;;;;5055363;28;20392;-63
2022/04/17 01:46:38;;;;;;;2.50;2.05;;;23.20;34.10;;;;;;5073222;28;20415;-64
2022/04/17 01:49:04;;;;;;;2.35;2.15;;;23.20;34.10;;;;;;5072789;28;20388;-64
2022/04/17 01:51:39;;;;;;;2.63;2.17;;;23.10;34.10;;;;;;5073383;28;20905;-63
2022/04/17 01:54:12;;;;;;;2.58;2.38;;;23.10;34.10;;;;;;5072888;28;20407;-63
2022/04/17 01:56:39;;;;;;;2.50;2.30;;;23.10;34.10;;;;;;5055204;28;20392;-64
2022/04/17 01:59:06;;;;;;;2.70;2.20;;;23.10;34.10;;;;;;5054651;28;20395;-63
2022/04/17 02:01:33;;;;;;;2.30;2.10;;;23.10;34.10;;;;;;5055126;28;20790;-63
2022/04/17 02:04:00;;;;;;;3.13;2.20;;;23.10;34.10;;;;;;5072953;28;20398;-64
2022/04/17 02:06:26;;;;;;;2.30;2.10;;;23.10;34.10;;;;;;5071710;28;20387;-63
2022/04/17 02:08:51;;;;;;;2.63;2.10;;;23.00;34.10;;;;;;5072672;28;20445;-63
2022/04/17 02:11:21;;;;;;;2.40;2.10;;;23.10;34.10;;;;;;5072582;28;20415;-63
2022/04/17 02:13:49;;;;;;;3.05;2.25;;;23.10;34.10;;;;;;5072810;28;20418;-63
2022/04/17 02:16:15;;;;;;;2.50;2.20;;;23.00;34.00;;;;;;5072686;28;20372;-63
2022/04/17 02:18:42;;;;;;;2.60;1.92;;;23.00;34.00;;;;;;5072707;28;20923;-63
2022/04/17 02:21:08;;;;;;;2.42;2.20;;;23.00;34.00;;;;;;5071933;28;20392;-63
2022/04/17 02:23:34;;;;;;;2.67;2.17;;;23.00;34.00;;;;;;5072617;28;20441;-62
2022/04/17 02:26:00;;;;;;;2.40;2.20;;;23.00;34.00;;;;;;5072471;28;20429;-63
2022/04/17 02:28:27;;;;;;;3.60;2.10;;;23.00;33.90;;;;;;5072524;28;20394;-63
2022/04/17 02:30:53;;;;;;;2.58;2.20;;;23.00;34.00;;;;;;5072222;28;20411;-63
2022/04/17 02:33:19;;;;;;;2.72;2.03;;;23.00;34.00;;;;;;5072086;28;20945;-63
2022/04/17 02:35:45;;;;;;;2.33;1.65;;;23.00;34.00;;;;;;5072313;28;20423;-63
2022/04/17 02:38:10;;;;;;;2.40;1.83;;;23.00;34.00;;;;;;5072217;28;20427;-63
2022/04/17 02:40:36;;;;;;;2.53;2.20;;;23.00;34.00;;;;;;5072021;28;20395;-63
2022/04/17 02:43:02;;;;;;;3.40;2.20;;;23.00;34.00;;;;;;5070223;28;20402;-63
2022/04/17 02:45:28;;;;;;;2.50;2.17;;;23.00;34.00;;;;;;5072043;28;20384;-64
2022/04/17 02:47:54;;;;;;;2.55;2.00;;;23.00;34.00;;;;;;5071922;28;20407;-63
2022/04/17 02:50:20;;;;;;;2.30;2.00;;;23.00;33.90;;;;;;5072048;28;20409;-63
2022/04/17 02:52:46;;;;;;;2.50;2.10;;;22.90;33.90;;;;;;5071804;28;20407;-63
2022/04/17 02:55:13;;;;;;;2.78;2.20;;;23.00;34.00;;;;;;5070948;28;20476;-63
2022/04/17 02:57:39;;;;;;;2.50;2.20;;;22.90;33.90;;;;;;5071687;28;20376;-63
2022/04/17 03:00:10;;;;;;;2.78;2.25;;;22.90;33.90;;;;;;5071951;28;20474;-63
2022/04/17 03:05:37;;;;;;;2.80;2.40;;;22.90;33.80;;;;;;5072141;28;20502;-63
2022/04/17 03:08:14;;;;;;;3.45;2.78;;;22.90;33.90;;;;;;5071870;28;20506;-63
2022/04/17 03:10:41;;;;;;;2.80;2.42;;;22.90;33.90;;;;;;5071837;28;20714;-63
2022/04/17 03:13:08;;;;;;;3.45;2.78;;;22.90;33.90;;;;;;5071110;28;20465;-64
2022/04/17 03:15:36;;;;;;;3.08;2.70;;;22.90;33.90;;;;;;5071672;28;20376;-63
2022/04/17 03:18:02;;;;;;;3.10;2.60;;;22.90;33.90;;;;;;5071234;28;20483;-64
2022/04/17 03:20:28;;;;;;;3.33;2.50;;;22.90;33.90;;;;;;5070145;28;20529;-64
2022/04/17 03:22:54;;;;;;;2.92;2.45;;;22.90;33.90;;;;;;5053471;28;20431;-63
2022/04/17 03:25:20;;;;;;;3.20;2.65;;;22.90;34.00;;;;;;5071266;28;20745;-63
2022/04/17 03:27:46;;;;;;;3.33;2.60;;;22.90;33.90;;;;;;5071513;28;20902;-63
2022/04/17 03:30:16;;;;;;;3.13;2.63;;;22.90;33.90;;;;;;5071531;28;20410;-63
2022/04/17 03:32:47;;;;;;;3.63;2.90;;;22.80;33.80;;;;;;5071401;28;20412;-63
2022/04/17 03:35:14;;;;;;;3.03;2.40;;;22.80;33.80;;;;;;5071040;28;20474;-63
2022/04/17 03:37:44;;;;;;;3.50;2.65;;;22.80;33.80;;;;;;5071498;28;20388;-63
2022/04/17 03:40:11;;;;;;;3.05;2.60;;;22.80;33.80;;;;;;5071342;28;20394;-63
2022/04/17 03:42:37;;;;;;;3.40;2.60;;;22.80;33.70;;;;;;5071472;28;20425;-63
2022/04/17 03:45:07;;;;;;;3.30;2.50;;;22.80;33.70;;;;;;5070869;28;20384;-63
2022/04/17 03:47:34;;;;;;;2.95;2.40;;;22.80;33.90;;;;;;5071294;28;20806;-63
2022/04/17 03:50:00;;;;;;;3.50;2.47;;;22.80;33.70;;;;;;5071266;28;20390;-63
2022/04/17 03:52:26;;;;;;;3.45;2.80;;;22.80;33.70;;;;;;5071227;28;20482;-63
2022/04/17 03:54:51;;;;;;;2.93;2.63;;;22.80;33.70;;;;;;5071017;28;20404;-63
2022/04/17 03:57:17;;;;;;;3.10;2.72;;;22.80;33.70;;;;;;5070765;28;20388;-67
2022/04/17 03:59:42;;;;;;;3.07;2.50;;;22.80;33.80;;;;;;5071301;28;20387;-65
2022/04/17 04:02:08;;;;;;;3.10;2.70;;;22.70;33.80;;;;;;5071442;28;20701;-64
2022/04/17 04:04:34;;;;;;;3.13;2.40;;;22.70;33.80;;;;;;5071168;28;20930;-65
2022/04/17 04:07:00;;;;;;;3.00;2.60;;;22.80;33.80;;;;;;5070859;28;20384;-64
2022/04/17 04:09:26;;;;;;;2.72;2.25;;;22.70;33.80;;;;;;5070469;28;20942;-63
2022/04/17 04:11:51;;;;;;;2.93;2.53;;;22.70;33.80;;;;;;5070556;28;20445;-64
2022/04/17 04:14:17;;;;;;;3.03;2.63;;;22.70;33.80;;;;;;5070975;28;20422;-64
2022/04/17 04:16:43;;;;;;;3.58;3.00;;;22.70;33.80;;;;;;5069857;28;20879;-64
2022/04/17 04:19:12;;;;;;;3.33;3.03;;;22.70;33.70;;;;;;5070534;28;20471;-64
2022/04/17 04:21:47;;;;;;;3.33;3.00;;;22.70;33.70;;;;;;5071014;28;20440;-64
2022/04/17 04:24:14;;;;;;;3.95;3.22;;;22.70;33.70;;;;;;5069647;28;20484;-63
2022/04/17 04:26:44;;;;;;;4.03;3.40;;;22.70;33.60;;;;;;5070962;28;20392;-64
2022/04/17 04:29:10;;;;;;;3.80;3.20;;;22.70;33.60;;;;;;5070381;28;20387;-64
2022/04/17 04:31:35;;;;;;;4.05;3.28;;;22.70;34.20;;;;;;5074145;28;20384;-63
2022/04/17 04:34:02;;;;;;;4.00;3.55;;;22.70;33.60;;;;;;5073318;28;20416;-63
2022/04/17 04:36:27;;;;;;;4.50;3.60;;;22.70;33.60;;;;;;5074568;28;20463;-63
2022/04/17 04:38:53;;;;;;;3.80;3.22;;;22.70;33.60;;;;;;5074527;28;20482;-63
2022/04/17 04:41:19;;;;;;;3.90;3.40;;;22.70;33.50;;;;;;5073978;28;20382;-63
2022/04/17 04:43:44;;;;;;;4.13;3.30;;;22.70;33.50;;;;;;5074462;28;20380;-63
2022/04/17 04:46:10;;;;;;;3.72;3.35;;;22.70;33.50;;;;;;5074094;28;20384;-63
2022/04/17 04:51:26;;;;;;;4.68;3.47;;;22.70;33.50;;;;;;5074188;28;20426;-63
2022/04/17 04:53:52;;;;;;;4.63;3.30;;;22.70;33.50;;;;;;5074021;28;20447;-63
2022/04/17 04:56:19;;;;;;;3.92;3.30;;;22.70;33.50;;;;;;5074204;28;20416;-64
2022/04/17 04:58:45;;;;;;;3.38;2.75;;;22.70;33.50;;;;;;5074345;28;20398;-63
2022/04/17 05:01:12;;;;;;;3.65;3.10;;;22.70;33.50;;;;;;5073620;28;20516;-63
2022/04/17 05:03:38;;;;;;;4.00;3.13;;;22.70;34.00;;;;;;5074139;28;20383;-64
2022/04/17 05:06:04;;;;;;;3.92;3.10;;;22.70;33.40;;;;;;5073999;28;20470;-63
2022/04/17 05:08:29;;;;;;;4.00;3.30;;;22.70;33.40;;;;;;5056140;28;20427;-63
2022/04/17 05:10:55;;;;;;;3.10;2.80;;;22.70;33.40;;;;;;5074033;28;20387;-63
2022/04/17 05:13:21;;;;;;;3.38;2.80;;;22.70;33.40;;;;;;5073177;28;20415;-64
2022/04/17 05:15:47;;;;;;;3.43;2.80;;;22.70;33.40;;;;;;5073953;28;20380;-63
2022/04/17 05:18:12;;;;;;;3.30;2.78;;;22.70;33.40;;;;;;5073841;28;20391;-63
2022/04/17 05:20:38;;;;;;;3.25;2.90;;;22.70;33.40;;;;;;5073647;28;20376;-64
2022/04/17 05:23:17;;;;;;;3.20;2.67;;;22.70;33.40;;;;;;5073421;28;20395;-63
2022/04/17 05:25:43;;;;;;;3.72;2.75;;;22.70;33.40;;;;;;5073333;28;20434;-63
2022/04/17 05:28:09;;;;;;;3.35;2.72;;;22.80;33.50;;;;;;5073470;28;20891;-64
2022/04/17 05:30:35;;;;;;;3.00;2.70;;;22.70;33.40;;;;;;5073708;28;20384;-63
2022/04/17 05:33:01;;;;;;;3.67;2.80;;;22.80;33.50;;;;;;5055284;28;20420;-64
2022/04/17 05:35:26;;;;;;;3.25;2.70;;;22.80;33.50;;;;;;5073307;28;20392;-63
2022/04/17 05:37:52;;;;;;;2.70;2.40;;;22.80;33.50;;;;;;5073534;28;20392;-63
2022/04/17 05:40:17;;;;;;;2.78;2.40;;;22.80;33.40;;;;;;5073440;28;20470;-64
2022/04/17 05:42:43;;;;;;;3.20;2.43;;;22.80;33.50;;;;;;5071994;28;20396;-63
2022/04/17 05:45:09;;;;;;;3.33;2.75;;;22.80;33.40;;;;;;5072896;28;20782;-63
2022/04/17 05:47:35;;;;;;;2.90;2.40;;;22.80;33.40;;;;;;5073143;28;20430;-63
2022/04/17 05:50:01;;;;;;;2.87;2.47;;;22.80;33.40;;;;;;5073307;28;20860;-63
2022/04/17 05:52:27;;;;;;;3.13;2.55;;;22.80;33.40;;;;;;5073300;28;20408;-64
2022/04/17 05:54:53;;;;;;;2.78;2.50;;;22.80;33.40;;;;;;5072949;28;20453;-63
2022/04/17 05:57:19;;;;;;;2.92;2.30;;;22.80;33.40;;;;;;5072730;28;20387;-63
2022/04/17 05:59:46;;;;;;;3.50;2.50;;;22.80;33.40;;;;;;5073089;28;20396;-63
2022/04/17 06:02:13;;;;;;;3.15;2.50;;;22.80;33.40;;;;;;5055513;28;20396;-64
2022/04/17 06:04:39;;;;;;;3.25;2.55;;;22.80;33.40;;;;;;5072983;28;20921;-63
2022/04/17 06:07:05;;;;;;;2.93;2.57;;;22.80;33.30;;;;;;5072697;28;20388;-63
2022/04/17 06:09:31;;;;;;;2.72;2.47;;;22.90;33.40;;;;;;5072757;28;20871;-63
2022/04/17 06:11:56;;;;;;;2.40;2.20;;;22.90;33.40;;;;;;5072841;28;20423;-63
2022/04/17 06:14:22;;;;;;;3.10;2.40;;;22.90;33.40;;;;;;5072784;28;20938;-63
2022/04/17 06:16:47;;;;;;;3.07;2.40;;;22.90;33.40;;;;;;5072797;28;20814;-64
2022/04/17 06:19:14;;;;;;;2.70;2.40;;;22.90;33.40;;;;;;5072184;28;20396;-63
2022/04/17 06:21:40;;;;;;;3.58;2.47;;;22.90;33.40;;;;;;5072771;28;20376;-63
2022/04/17 06:24:06;;;;;;;3.80;2.70;;;22.90;33.40;;;;;;5054677;28;20392;-63
2022/04/17 06:26:33;;;;;;;2.60;2.40;;;22.90;33.30;;;;;;5072635;28;20410;-63
2022/04/17 06:29:03;;;;;;;2.70;2.33;;;23.00;33.30;;;;;;5072535;28;20760;-63
2022/04/17 06:31:30;;;;;;;2.65;2.20;;;23.00;33.30;;;;;;5054315;28;20777;-64
2022/04/17 06:33:55;;;;;;;2.50;2.23;;;23.00;33.20;;;;;;5072379;28;20824;-63
2022/04/17 06:36:21;;;;;;;2.35;2.15;;;23.00;33.20;;;;;;5054440;28;20383;-63
2022/04/17 06:38:46;;;;;;;2.67;2.20;;;23.00;33.10;;;;;;5072326;28;20441;-63
2022/04/17 06:41:12;;;;;;;5.03;2.40;;;23.10;32.60;;;;;;5071224;28;20429;-65
2022/04/17 06:43:38;;;;;;;4.47;2.40;;;23.10;33.40;;;;;;5072990;28;20422;-65
2022/04/17 06:46:03;;;;;;;5.20;2.72;;;23.20;34.20;;;;;;5072532;28;20383;-65
2022/04/17 06:48:29;;;;;;;8.40;3.57;;;23.30;33.60;;;;;;5072487;28;20411;-64
2022/04/17 06:50:56;;;;;;;5.10;2.80;;;23.30;33.50;;;;;;5072762;28;20380;-62
2022/04/17 06:53:22;;;;;;;6.20;2.70;;;23.20;32.90;;;;;;5070565;28;20403;-65
2022/04/17 06:55:48;;;;;;;5.82;2.78;;;23.10;33.10;;;;;;5055304;28;20395;-65
2022/04/17 06:58:20;;;;;;;6.85;2.90;;;23.00;33.20;;;;;;5072075;28;20804;-63
2022/04/17 07:00:46;;;;;;;4.00;2.42;;;23.00;33.20;;;;;;5071857;28;20376;-62
2022/04/17 07:03:14;;;;;;;5.50;2.60;;;23.10;33.20;;;;;;5073228;28;20388;-64
2022/04/17 07:05:40;;;;;;;5.45;2.53;;;23.10;33.50;;;;;;5071731;28;20783;-63
2022/04/17 07:08:07;;;;;;;5.07;2.60;;;23.10;33.50;;;;;;5072574;28;20391;-64
2022/04/17 07:10:37;;;;;;;3.95;2.65;;;23.10;33.40;;;;;;5072708;28;20930;-64
2022/04/17 07:13:07;;;;;;;3.13;2.50;;;23.10;33.60;;;;;;5055235;28;20447;-63
2022/04/17 07:15:32;;;;;;;3.40;2.63;;;23.10;33.40;;;;;;5072055;28;20395;-63
2022/04/17 07:17:58;;;;;;;3.50;2.30;;;23.10;33.90;;;;;;5071193;28;20467;-63
2022/04/17 07:20:24;;;;;;;5.10;2.30;;;23.20;33.80;;;;;;5071589;28;20399;-63
2022/04/17 07:22:50;;;;;;;4.30;2.33;;;23.20;34.10;;;;;;5071192;28;20833;-63
2022/04/17 07:25:16;;;;;;;4.15;2.40;;;23.20;34.00;;;;;;5056170;28;20405;-64
2022/04/17 07:27:44;;;;;;;4.10;2.33;;;23.20;34.10;;;;;;5051375;28;20378;-64
2022/04/17 07:30:21;;;;;;;5.65;2.58;;;23.20;34.10;;;;;;5051186;28;20386;-64
2022/04/17 07:32:52;;;;;;;3.67;2.33;;;23.30;34.20;;;;;;5051417;28;20439;-65
2022/04/17 07:35:18;;;;;;;4.90;2.60;;;23.30;34.00;;;;;;5050713;28;20381;-64
2022/04/17 07:37:53;;;;;;;7.38;2.55;;;23.30;34.60;;;;;;5051811;28;20766;-64
2022/04/17 07:40:25;;;;;;;15.20;3.87;;;23.20;34.50;;;;;;5033283;28;20465;-65
2022/04/17 07:42:51;;;;;;;11.68;3.10;;;23.30;34.60;;;;;;5051435;28;20898;-66
2022/04/17 07:45:18;;;;;;;8.80;4.03;;;23.40;34.50;;;;;;5050396;28;20454;-66
2022/04/17 07:47:44;;;;;;;10.43;4.13;;;23.50;35.60;;;;;;5051331;28;20478;-65
2022/04/17 07:50:13;;;;;;;7.22;2.90;;;23.60;35.50;;;;;;5053439;28;21064;-65
2022/04/17 07:52:40;;;;;;;7.95;2.95;;;23.70;35.10;;;;;;5053393;28;20453;-67
2022/04/17 07:55:06;;;;;;;6.67;2.70;;;23.70;35.00;;;;;;5052548;28;20465;-66
2022/04/17 07:57:53;;;;;;;4.57;2.72;;;23.70;34.90;;;;;;5050497;28;20764;-64
2022/04/17 08:00:22;;;;;;;6.60;3.00;;;23.70;34.60;;;;;;5049843;28;20404;-65
2022/04/17 08:02:55;;;;;;;7.78;2.90;;;23.60;35.00;;;;;;5050348;28;20390;-67
2022/04/17 08:05:24;;;;;;;7.37;2.50;;;23.60;35.30;;;;;;5050494;28;20443;-64
2022/04/17 08:07:51;;;;;;;5.70;2.30;;;23.60;35.40;;;;;;5036665;28;20404;-61
2022/04/17 08:10:17;;;;;;;5.78;2.72;;;23.60;36.00;;;;;;5054337;28;20484;-62
2022/04/17 08:12:44;;;;;;;7.57;2.90;;;23.60;36.00;;;;;;5053033;28;20397;-62
2022/04/17 08:15:10;;;;;;;7.65;2.70;;;23.60;35.10;;;;;;5041360;28;20412;-64
2022/04/17 08:17:35;;;;;;;5.22;2.60;;;23.70;36.10;;;;;;5039316;28;20450;-63
2022/04/17 08:20:01;;;;;;;7.70;2.90;;;23.70;35.20;;;;;;5027640;28;20398;-63
2022/04/17 08:22:27;;;;;;;9.83;2.97;;;23.60;34.80;;;;;;5054123;28;20385;-61
2022/04/17 08:24:53;;;;;;;8.18;2.65;;;23.60;35.00;;;;;;5053693;28;20859;-62
2022/04/17 08:27:18;;;;;;;6.53;2.70;;;23.60;34.90;;;;;;5053665;28;20860;-65
2022/04/17 08:29:44;;;;;;;7.63;2.78;;;23.70;34.80;;;;;;5053897;28;20528;-63
2022/04/17 08:32:10;;;;;;;7.77;2.83;;;23.70;34.50;;;;;;5054359;28;20411;-63
2022/04/17 08:34:35;;;;;;;5.72;2.78;;;23.70;35.00;;;;;;5054078;28;20453;-65
2022/04/17 08:37:01;;;;;;;7.70;2.83;;;23.70;34.80;;;;;;5053580;28;20433;-65
2022/04/17 08:39:26;;;;;;;7.17;2.50;;;23.70;34.60;;;;;;5049346;28;20432;-65
2022/04/17 08:41:54;;;;;;;8.05;2.65;;;23.70;34.50;;;;;;5052568;28;20394;-65
2022/04/17 08:44:22;;;;;;;9.55;2.60;;;23.80;34.10;;;;;;5053206;28;20416;-64
2022/04/17 08:46:47;;;;;;;6.00;2.50;;;23.80;33.90;;;;;;5050906;28;20835;-66
2022/04/17 08:49:13;;;;;;;4.97;2.30;;;23.80;33.70;;;;;;5053334;28;20536;-65
2022/04/17 08:51:40;;;;;;;4.13;2.35;;;23.80;33.80;;;;;;5051827;28;20394;-64
2022/04/17 08:54:07;;;;;;;6.82;2.40;;;23.80;33.60;;;;;;5051597;28;20444;-65
2022/04/17 08:56:35;;;;;;;6.60;2.30;;;23.90;33.60;;;;;;5032012;28;20425;-65
2022/04/17 08:59:01;;;;;;;6.28;2.28;;;23.90;33.70;;;;;;5055214;28;20409;-65
2022/04/17 09:01:28;;;;;;;6.00;2.27;;;23.90;33.50;;;;;;5051241;28;20386;-66
2022/04/17 09:03:53;;;;;;;5.22;2.20;;;23.90;33.60;;;;;;5054099;28;20401;-65
2022/04/17 09:06:20;;;;;;;6.63;2.20;;;23.90;33.60;;;;;;5059563;28;20387;-65
2022/04/17 09:09:00;;;;;;;4.97;2.10;;;23.90;33.30;;;;;;5063224;28;20551;-64
2022/04/17 09:11:31;;;;;;;6.85;2.30;;;23.90;32.90;;;;;;5050125;28;20419;-65
2022/04/17 09:14:01;;;;;;;7.00;2.10;;;23.90;32.90;;;;;;5033735;28;20418;-64
2022/04/17 09:16:49;;;;;;;4.97;2.00;;;23.90;32.90;;;;;;5051608;28;20393;-64
2022/04/17 09:19:17;;;;;;;5.10;2.00;;;23.90;32.80;;;;;;5052069;28;20480;-65
2022/04/17 09:21:43;;;;;;;4.55;2.10;;;23.90;32.70;;;;;;5054148;28;20381;-65
2022/04/17 09:24:17;;;;;;;3.75;1.92;;;24.00;32.60;;;;;;5053264;28;20415;-65
2022/04/17 09:26:47;;;;;;;5.10;2.05;;;23.90;32.50;;;;;;5052719;28;20794;-64
2022/04/17 09:29:24;;;;;;;5.15;2.00;;;23.90;32.50;;;;;;5052500;28;20395;-65
2022/04/17 09:32:18;;;;;;;4.45;1.80;;;24.00;32.40;;;;;;5052163;28;20381;-64
2022/04/17 09:34:55;;;;;;;4.90;1.90;;;23.90;32.40;;;;;;5051092;28;20476;-66
2022/04/17 09:37:26;;;;;;;5.20;2.00;;;24.00;32.40;;;;;;5051371;28;20388;-64
2022/04/17 09:39:52;;;;;;;4.22;1.75;;;24.00;32.30;;;;;;5051699;28;20460;-64
2022/04/17 09:42:23;;;;;;;4.65;1.90;;;24.00;32.20;;;;;;5052062;28;20401;-66
2022/04/17 09:44:50;;;;;;;3.53;1.70;;;24.00;32.10;;;;;;5052885;28;20881;-66
2022/04/17 09:47:26;;;;;;;2.30;1.80;;;24.00;32.10;;;;;;5028243;28;20449;-65
2022/04/17 09:50:08;;;;;;;2.90;1.77;;;24.00;32.00;;;;;;5032639;28;20729;-66
2022/04/17 09:52:40;;;;;;;2.60;1.63;;;24.00;32.00;;;;;;5031164;28;20461;-64
2022/04/17 09:55:06;;;;;;;3.03;1.77;;;24.00;32.00;;;;;;5033215;28;20395;-66
2022/04/17 09:57:36;;;;;;;2.67;1.70;;;24.00;31.90;;;;;;5031849;28;20384;-63
2022/04/17 10:00:15;;;;;;;2.75;1.70;;;24.00;31.80;;;;;;5032795;28;20717;-66
2022/04/17 10:02:46;;;;;;;3.35;1.80;;;24.00;31.80;;;;;;5030607;28;20391;-64
2022/04/17 10:05:15;;;;;;;3.42;1.90;;;24.00;31.90;;;;;;5032880;28;20938;-63
2022/04/17 10:07:43;;;;;;;2.40;1.80;;;24.00;31.80;;;;;;5032402;28;20410;-67
2022/04/17 10:10:11;;;;;;;6.72;2.10;;;24.00;31.90;;;;;;5032102;28;20426;-65
2022/04/17 10:12:39;;;;;;;3.80;2.20;;;24.00;31.90;;;;;;5029011;28;21073;-65
2022/04/17 10:15:07;;;;;;;4.22;1.85;;;24.00;31.00;;;;;;5032633;28;20395;-66
2022/04/17 10:17:44;;;;;;;6.00;2.10;;;23.90;30.90;;;;;;5031433;28;20387;-65
2022/04/17 10:20:12;;;;;;;5.18;2.00;;;23.90;30.80;;;;;;5028772;28;20979;-65
2022/04/17 10:22:41;;;;;;;5.03;2.00;;;23.90;31.10;;;;;;5031998;28;20535;-65
2022/04/17 10:25:08;;;;;;;6.07;1.88;;;23.90;30.60;;;;;;5033222;28;20430;-65
2022/04/17 10:27:50;;;;;;;3.95;1.88;;;23.90;30.60;;;;;;5030008;28;20490;-65
2022/04/17 10:30:18;;;;;;;4.93;1.90;;;24.00;30.70;;;;;;5032311;28;20402;-64
2022/04/17 10:33:21;;;;;;;6.03;2.00;;;24.10;30.50;;;;;;5032357;28;20929;-64
2022/04/17 10:36:02;;;;;;;66.15;3.25;;;24.20;30.00;;;;;;5032308;28;20887;-65
2022/04/17 10:38:31;;;;;;;37.47;2.80;;;24.20;30.80;;;;;;5032550;28;20441;-65
2022/04/17 10:41:05;;;;;;;19.35;2.58;;;24.30;31.00;;;;;;5032083;28;20415;-66
2022/04/17 10:43:52;;;;;;;10.05;2.20;;;24.30;31.40;;;;;;5032109;28;20387;-67
2022/04/17 10:46:19;;;;;;;8.60;2.07;;;24.30;31.70;;;;;;5027020;28;21019;-65
2022/04/17 10:48:57;;;;;;;10.98;2.50;;;24.40;32.00;;;;;;5109244;27;20361;-65
2022/04/17 10:51:30;;;;;;;5.25;2.22;;;24.40;32.90;;;;;;5107794;28;20800;-65
2022/04/17 10:54:05;;;;;;;6.65;2.53;;;24.50;32.90;;;;;;5107787;28;20390;-66
2022/04/17 10:56:33;;;;;;;5.07;2.10;;;24.50;32.80;;;;;;5108099;28;20397;-66
2022/04/17 10:59:01;;;;;;;5.28;2.08;;;24.60;32.20;;;;;;5109433;28;20385;-66
2022/04/17 11:01:53;;;;;;;4.93;2.17;;;24.50;32.00;;;;;;5246098;22;20503;-66
2022/04/17 11:04:23;;;;;;;3.25;1.88;;;24.60;31.90;;;;;;5047184;28;20444;-66
2022/04/17 11:07:04;;;;;;;4.22;2.30;;;24.60;32.00;;;;;;5047702;28;20418;-66
2022/04/17 11:09:31;;;;;;;6.53;2.10;;;24.70;32.10;;;;;;5048135;28;20397;-66
2022/04/17 11:12:19;;;;;;;4.53;2.10;;;24.70;32.70;;;;;;5047544;28;20731;-66
2022/04/17 11:15:02;;;;;;;4.78;2.10;;;24.70;32.70;;;;;;5049611;28;20386;-65
2022/04/17 11:17:29;;;;;;;5.95;1.92;;;24.70;33.00;;;;;;5047715;28;20405;-67
2022/04/17 11:19:57;;;;;;;4.10;1.80;;;24.70;32.60;;;;;;5049233;28;20796;-66
2022/04/17 11:22:41;;;;;;;3.75;2.00;;;24.70;32.00;;;;;;5048304;28;20389;-65
2022/04/17 11:25:08;;;;;;;4.88;2.40;;;24.70;31.80;;;;;;5046942;28;20399;-67
2022/04/17 11:27:51;;;;;;;4.18;1.80;;;24.70;32.70;;;;;;5046156;28;20552;-66
2022/04/17 11:30:17;;;;;;;3.78;1.90;;;24.70;33.00;;;;;;5047178;28;20395;-65
2022/04/17 11:32:42;;;;;;;3.47;1.70;;;25.60;33.10;;;;;;5049001;28;20398;-65
2022/04/17 11:35:10;;;;;;;4.10;1.92;;;26.00;32.70;;;;;;5046535;28;20791;-66
2022/04/17 11:37:37;;;;;;;2.83;1.83;;;26.20;32.30;;;;;;5045707;28;20391;-65
2022/04/17 11:40:11;;;;;;;3.45;1.70;;;26.40;32.00;;;;;;5046457;28;20395;-66
2022/04/17 11:42:46;;;;;;;3.38;1.90;;;26.50;31.70;;;;;;5047686;28;20382;-66
2022/04/17 11:45:13;;;;;;;5.72;1.83;;;26.60;31.60;;;;;;5047690;28;20863;-65
2022/04/17 11:47:41;;;;;;;3.22;1.70;;;26.70;31.50;;;;;;5045895;28;20934;-66
2022/04/17 11:50:09;;;;;;;2.67;1.70;;;26.70;31.40;;;;;;5047620;28;20392;-65
2022/04/17 11:52:35;;;;;;;2.85;1.80;;;26.70;31.30;;;;;;5047452;28;20398;-66
2022/04/17 11:55:01;;;;;;;2.72;1.80;;;26.80;31.40;;;;;;5047550;28;20890;-65
2022/04/17 11:57:26;;;;;;;2.90;1.60;;;26.80;31.40;;;;;;5045913;28;20447;-65
2022/04/17 11:59:54;;;;;;;3.00;1.75;;;26.80;31.40;;;;;;5035958;28;20748;-65
2022/04/17 12:02:23;;;;;;;3.42;1.73;;;26.80;31.40;;;;;;5032678;28;20914;-65
2022/04/17 12:04:50;;;;;;;2.58;1.52;;;26.80;31.50;;;;;;5032898;28;20474;-65
2022/04/17 12:07:21;;;;;;;3.20;1.73;;;26.80;31.50;;;;;;5033913;28;20407;-65
2022/04/17 12:09:46;;;;;;;3.17;1.90;;;26.90;31.40;;;;;;5033925;28;20426;-66
2022/04/17 12:12:14;;;;;;;2.85;1.70;;;27.00;31.40;;;;;;5033928;28;20415;-66
2022/04/17 12:14:41;;;;;;;2.50;1.80;;;27.00;31.70;;;;;;5033902;28;20406;-65
2022/04/17 12:17:07;;;;;;;3.53;1.80;;;27.00;31.60;;;;;;5031932;28;20426;-65
2022/04/17 12:19:33;;;;;;;5.27;1.90;;;27.10;31.50;;;;;;5032855;28;20418;-64
2022/04/17 12:21:58;;;;;;;5.57;1.85;;;27.10;31.20;;;;;;5032445;28;20396;-66
2022/04/17 12:24:27;;;;;;;4.67;1.80;;;27.20;32.10;;;;;;5032632;28;20453;-65
2022/04/17 12:26:54;;;;;;;4.05;1.88;;;27.20;31.90;;;;;;5033399;28;20465;-65
2022/04/17 12:29:20;;;;;;;3.33;1.80;;;27.30;29.80;;;;;;5031562;28;20888;-66
2022/04/17 12:31:45;;;;;;;5.30;1.40;;;27.30;29.60;;;;;;5031546;28;20402;-67
2022/04/17 12:34:18;;;;;;;4.50;1.80;;;27.30;29.50;;;;;;5032141;28;20725;-65
2022/04/17 12:36:44;;;;;;;4.80;1.70;;;27.40;29.50;;;;;;5033521;28;20461;-65
2022/04/17 12:39:10;;;;;;;4.88;2.00;;;27.40;29.80;;;;;;5032127;28;20888;-65
2022/04/17 12:41:46;;;;;;;4.03;1.65;;;27.40;30.30;;;;;;5031217;28;20391;-66
2022/04/17 12:44:12;;;;;;;3.03;1.73;;;27.40;31.60;;;;;;5031887;28;20407;-64
2022/04/17 12:46:42;;;;;;;3.95;1.52;;;27.40;31.20;;;;;;5031930;28;20389;-66
2022/04/17 12:49:09;;;;;;;3.30;1.60;;;27.50;31.10;;;;;;5033429;28;20395;-65
2022/04/17 12:51:37;;;;;;;4.28;1.40;;;27.50;32.30;;;;;;5025445;28;20400;-66
2022/04/17 12:54:06;;;;;;;2.65;1.40;;;27.50;32.10;;;;;;5021635;28;20399;-64
2022/04/17 12:56:32;;;;;;;4.30;1.50;;;27.50;32.60;;;;;;5012235;28;20864;-66
2022/04/17 12:58:59;;;;;;;4.13;1.53;;;27.60;32.00;;;;;;5013507;28;20431;-66